createdAt,value
2022-10-11T00:01:22.819Z,99.90
2022-10-11T00:06:25.314Z,99.90
2022-10-11T00:11:28.120Z,99.90
2022-10-11T00:16:30.517Z,99.90
2022-10-11T00:21:32.980Z,99.90
2022-10-11T00:26:35.408Z,99.90
2022-10-11T00:31:37.799Z,99.90
2022-10-11T00:36:40.177Z,99.90
2022-10-11T00:41:43.005Z,99.90
2022-10-11T00:46:55.829Z,99.90
2022-10-11T00:52:29.050Z,99.90
2022-10-11T00:57:34.865Z,99.90
2022-10-11T01:02:37.782Z,99.90
2022-10-11T01:07:41.754Z,99.90
2022-10-11T01:13:10.169Z,99.90
2022-10-11T01:18:54.253Z,99.90
2022-10-11T01:24:30.118Z,99.90
2022-10-11T01:29:56.198Z,99.90
2022-10-11T01:35:24.260Z,99.90
2022-10-11T01:40:35.304Z,99.90
2022-10-11T01:45:38.121Z,99.90
2022-10-11T01:50:43.474Z,99.90
2022-10-11T01:55:55.640Z,99.90
2022-10-11T02:01:06.881Z,99.90
2022-10-11T02:06:12.425Z,99.90
2022-10-11T02:11:28.766Z,99.90
2022-10-11T02:16:39.455Z,99.90
2022-10-11T02:21:44.565Z,99.90
2022-10-11T02:26:54.224Z,99.90
2022-10-11T02:31:59.431Z,99.90
2022-10-11T02:37:17.308Z,99.90
2022-10-11T02:42:43.015Z,99.90
2022-10-11T02:47:46.552Z,99.90
2022-10-11T02:52:49.025Z,99.90
2022-10-11T02:57:51.339Z,99.90
2022-10-11T03:02:53.741Z,99.90
2022-10-11T03:07:56.012Z,99.90
2022-10-11T03:12:58.282Z,99.90
2022-10-11T03:18:00.985Z,99.90
2022-10-11T03:23:03.319Z,99.90
2022-10-11T03:28:05.883Z,99.90
2022-10-11T03:33:08.194Z,99.90
2022-10-11T03:38:20.208Z,99.90
2022-10-11T03:43:22.513Z,99.90
2022-10-11T03:48:24.988Z,99.90
2022-10-11T03:53:27.386Z,99.90
2022-10-11T03:58:29.729Z,99.90
2022-10-11T04:03:32.065Z,99.90
2022-10-11T04:08:34.368Z,99.90
2022-10-11T04:13:36.673Z,99.90
2022-10-11T04:18:39.037Z,99.90
2022-10-11T04:23:41.325Z,99.90
2022-10-11T04:28:43.723Z,99.90
2022-10-11T04:33:46.102Z,99.90
2022-10-11T04:38:48.448Z,99.90
2022-10-11T04:43:50.794Z,99.90
2022-10-11T04:48:53.471Z,99.90
2022-10-11T04:53:55.843Z,99.90
2022-10-11T04:58:58.163Z,99.90
2022-10-11T05:04:00.597Z,99.90
2022-10-11T05:09:06.308Z,99.90
2022-10-11T05:14:08.755Z,99.90
2022-10-11T05:19:11.155Z,99.90
2022-10-11T05:24:13.447Z,99.90
2022-10-11T05:29:16.110Z,99.90
2022-10-11T05:34:18.421Z,99.90
2022-10-11T05:39:20.770Z,99.90
2022-10-11T05:44:25.854Z,99.90
2022-10-11T05:49:28.203Z,99.90
2022-10-11T05:54:31.338Z,99.90
2022-10-11T05:59:35.360Z,99.90
2022-10-11T06:04:37.696Z,99.90
2022-10-11T06:09:40.084Z,99.90
2022-10-11T06:14:42.402Z,99.90
2022-10-11T06:19:44.723Z,99.90
2022-10-11T06:24:47.180Z,99.90
2022-10-11T06:29:49.519Z,99.90
2022-10-11T06:34:51.928Z,99.90
2022-10-11T06:39:54.222Z,99.90
2022-10-11T06:44:56.563Z,99.90
2022-10-11T06:49:58.956Z,99.90
2022-10-11T06:55:01.279Z,99.90
2022-10-11T07:00:07.964Z,99.90
2022-10-11T07:05:14.055Z,99.90
2022-10-11T07:10:16.441Z,99.90
2022-10-11T07:15:18.894Z,99.90
2022-10-11T07:20:21.164Z,99.90
2022-10-11T07:25:23.632Z,99.90
2022-10-11T07:30:25.975Z,99.90
2022-10-11T07:35:28.302Z,99.90
2022-10-11T07:40:31.426Z,99.90
2022-10-11T07:45:33.794Z,99.90
2022-10-11T07:50:36.745Z,99.90
2022-10-11T07:55:42.491Z,99.90
2022-10-11T08:00:44.826Z,99.90
2022-10-11T08:05:47.267Z,99.90
2022-10-11T08:10:49.602Z,99.90
2022-10-11T08:15:52.084Z,99.90
2022-10-11T08:20:54.388Z,99.90
2022-10-11T08:25:58.273Z,99.90
2022-10-11T08:31:01.299Z,99.90
2022-10-11T08:36:06.846Z,99.90
2022-10-11T08:41:32.980Z,99.90
2022-10-11T08:46:35.494Z,99.90
2022-10-11T08:51:45.673Z,99.90
2022-10-11T08:56:49.100Z,99.90
2022-10-11T09:02:04.060Z,99.90
2022-10-11T09:07:37.996Z,99.90
2022-10-11T09:13:01.398Z,99.90
2022-10-11T09:18:09.739Z,99.90
2022-10-11T09:23:36.954Z,99.90
2022-10-11T09:29:16.930Z,99.90
2022-10-11T09:34:21.886Z,99.90
2022-10-11T09:39:27.354Z,99.90
2022-10-11T09:44:45.326Z,99.90
2022-10-11T09:49:57.701Z,99.90
2022-10-11T09:55:02.295Z,99.90
2022-10-11T10:00:22.132Z,99.90
2022-10-11T10:05:31.694Z,99.90
2022-10-11T10:10:43.918Z,99.90
2022-10-11T10:15:48.688Z,99.90
2022-10-11T10:20:57.046Z,99.90
2022-10-11T10:26:20.762Z,99.90
2022-10-11T10:31:25.699Z,99.90
2022-10-11T10:36:35.489Z,99.90
2022-10-11T10:41:40.463Z,99.90
2022-10-11T10:47:15.724Z,99.90
2022-10-11T10:52:20.824Z,99.90
2022-10-11T10:57:31.800Z,99.90
2022-10-11T11:02:57.852Z,99.90
2022-10-11T11:08:14.450Z,99.90
2022-10-11T11:13:22.530Z,99.90
2022-10-11T11:18:55.849Z,99.90
2022-10-11T11:24:37.206Z,99.90
2022-10-11T11:29:55.502Z,99.90
2022-10-11T11:35:03.819Z,99.90
2022-10-11T11:40:19.269Z,99.90
2022-10-11T11:45:23.652Z,99.90
2022-10-11T11:50:28.610Z,99.90
2022-10-11T11:55:49.311Z,99.90
2022-10-11T12:01:30.239Z,98.80
2022-10-11T12:06:43.733Z,99.40
2022-10-11T12:11:59.195Z,97.90
2022-10-11T12:17:21.361Z,97.60
2022-10-11T12:22:26.697Z,97.80
2022-10-11T12:27:44.034Z,99.50
2022-10-11T12:32:49.346Z,99.80
2022-10-11T12:37:52.439Z,98.70
2022-10-11T12:43:15.000Z,98.60
2022-10-11T12:48:39.936Z,98.40
2022-10-11T12:54:31.006Z,98.50
2022-10-11T12:59:46.707Z,99.90
2022-10-11T13:04:49.163Z,99.90
2022-10-11T13:09:55.299Z,99.90
2022-10-11T13:15:07.021Z,99.10
2022-10-11T13:20:20.474Z,97.90
2022-10-11T13:25:25.952Z,96.10
2022-10-11T13:30:31.603Z,96.30
2022-10-11T13:35:37.093Z,95.80
2022-10-11T13:40:39.439Z,95.80
2022-10-11T13:45:42.143Z,96.80
2022-10-11T13:50:52.175Z,96.20
2022-10-11T13:56:00.343Z,95.40
2022-10-11T14:01:05.756Z,96.20
2022-10-11T14:06:08.920Z,96.40
2022-10-11T14:11:13.282Z,95.90
2022-10-11T14:16:18.725Z,96.00
2022-10-11T14:21:30.018Z,96.30
2022-10-11T14:26:38.425Z,97.40
2022-10-11T14:31:44.019Z,96.70
2022-10-11T14:36:47.371Z,97.70
2022-10-11T14:41:51.668Z,97.30
2022-10-11T14:46:55.076Z,97.70
2022-10-11T14:51:59.412Z,97.00
2022-10-11T14:57:03.999Z,96.20
2022-10-11T15:02:08.139Z,96.90
2022-10-11T15:07:12.854Z,96.70
2022-10-11T15:12:15.304Z,96.60
2022-10-11T15:17:17.719Z,97.10
2022-10-11T15:22:20.098Z,98.00
2022-10-11T15:27:25.582Z,99.20
2022-10-11T15:32:28.160Z,99.90
2022-10-11T15:37:33.839Z,99.90
2022-10-11T15:42:39.594Z,99.90
2022-10-11T15:47:42.114Z,99.90
2022-10-11T15:52:45.152Z,99.90
2022-10-11T15:57:47.525Z,99.90
2022-10-11T16:02:51.963Z,99.90
2022-10-11T16:07:55.020Z,99.90
2022-10-11T16:12:57.539Z,99.90
2022-10-11T16:18:02.389Z,99.90
2022-10-11T16:23:04.807Z,99.90
2022-10-11T16:28:08.637Z,99.90
2022-10-11T16:33:11.047Z,99.90
2022-10-11T16:38:13.765Z,99.90
2022-10-11T16:43:16.150Z,99.90
2022-10-11T16:48:18.734Z,99.90
2022-10-11T16:53:21.854Z,99.90
2022-10-11T16:58:24.771Z,99.90
2022-10-11T17:03:27.454Z,99.90
2022-10-11T17:08:29.885Z,99.90
2022-10-11T17:13:32.510Z,99.90
2022-10-11T17:18:35.037Z,99.90
2022-10-11T17:23:37.974Z,99.90
2022-10-11T17:28:40.520Z,99.90
2022-10-11T17:33:43.028Z,99.90
2022-10-11T17:38:46.080Z,99.90
2022-10-11T17:43:48.523Z,99.90
2022-10-11T17:48:52.408Z,99.90
2022-10-11T17:53:54.873Z,99.90
2022-10-11T17:58:58.604Z,99.90
2022-10-11T18:04:04.254Z,99.90
2022-10-11T18:09:07.250Z,99.90
2022-10-11T18:14:10.148Z,99.90
2022-10-11T18:19:13.664Z,99.90
2022-10-11T18:24:16.728Z,99.90
2022-10-11T18:29:19.045Z,99.90
2022-10-11T18:34:21.450Z,99.90
2022-10-11T18:39:24.088Z,99.90
2022-10-11T18:44:26.535Z,99.90
2022-10-11T18:49:29.104Z,99.90
2022-10-11T18:54:31.627Z,99.90
2022-10-11T18:59:34.215Z,99.90
2022-10-11T19:04:36.640Z,99.90
2022-10-11T19:09:39.048Z,99.90
2022-10-11T19:14:42.077Z,99.90
2022-10-11T19:19:44.493Z,99.90
2022-10-11T19:24:46.845Z,99.90
2022-10-11T19:29:49.201Z,99.90
2022-10-11T19:34:51.662Z,99.90
2022-10-11T19:39:54.333Z,99.90
2022-10-11T19:44:56.820Z,99.90
2022-10-11T19:49:59.205Z,99.90
2022-10-11T19:55:01.626Z,99.90
2022-10-11T20:00:04.761Z,99.90
2022-10-11T20:05:07.396Z,99.90
2022-10-11T20:10:09.862Z,99.90
2022-10-11T20:15:12.225Z,99.90
2022-10-11T20:20:19.277Z,99.90
2022-10-11T20:25:21.830Z,99.90
2022-10-11T20:30:24.186Z,99.90
2022-10-11T20:35:26.614Z,99.90
2022-10-11T20:40:29.439Z,99.90
2022-10-11T20:45:31.837Z,99.90
2022-10-11T20:50:34.409Z,99.90
2022-10-11T20:55:36.826Z,99.90
2022-10-11T21:00:40.150Z,99.90
2022-10-11T21:05:42.695Z,99.90
2022-10-11T21:10:52.498Z,99.90
2022-10-11T21:15:55.185Z,99.90
2022-10-11T21:20:57.578Z,99.90
2022-10-11T21:26:02.310Z,99.90
2022-10-11T21:31:11.208Z,99.90
2022-10-11T21:36:16.294Z,99.90
2022-10-11T21:41:22.115Z,99.90
2022-10-11T21:46:42.028Z,99.90
2022-10-11T21:51:50.501Z,99.90
2022-10-11T21:56:52.957Z,99.90
2022-10-11T22:02:00.756Z,99.90
2022-10-11T22:07:04.329Z,99.90
2022-10-11T22:12:07.019Z,99.90
2022-10-11T22:17:09.406Z,99.90
2022-10-11T22:22:12.018Z,99.90
2022-10-11T22:27:14.383Z,99.90
2022-10-11T22:32:16.795Z,99.90
2022-10-11T22:37:19.124Z,99.90
2022-10-11T22:42:26.741Z,99.90
2022-10-11T22:47:30.060Z,99.90
2022-10-11T22:52:32.521Z,99.90
2022-10-11T22:57:35.064Z,99.90
2022-10-11T23:02:37.667Z,99.90
2022-10-11T23:07:40.329Z,99.90
2022-10-11T23:12:43.435Z,99.90
2022-10-11T23:17:48.619Z,99.90
2022-10-11T23:22:51.051Z,99.90
2022-10-11T23:27:53.495Z,99.90
2022-10-11T23:32:55.919Z,99.90
2022-10-11T23:37:58.324Z,99.90
2022-10-11T23:43:00.913Z,99.90
2022-10-11T23:48:03.685Z,99.90
2022-10-11T23:53:06.111Z,99.90
2022-10-11T23:58:08.455Z,99.90
